Time;durP1;ratioP1;P1;durP2;ratioP2;P2;SDS_P1;SDS_P2;PMS_P1;PMS_P2;Temp;Humidity;BMP_temperature;BMP_pressure;BME280_temperature;BME280_humidity;BME280_pressure;Samples;Min_cycle;Max_cycle;Signal;HPM_P1;HPM_P2
2022/11/23 00:00:02;;;;;;;15.63;12.25;;;9.80;1.00;;;;;;5019155;28;20105;-63
2022/11/23 00:02:28;;;;;;;14.05;12.15;;;9.70;1.00;;;;;;5018051;28;20034;-63
2022/11/23 00:04:53;;;;;;;16.70;13.07;;;9.70;1.00;;;;;;5027153;28;20025;-63
2022/11/23 00:07:19;;;;;;;16.85;13.02;;;9.80;1.00;;;;;;5028662;28;20467;-64
2022/11/23 00:09:44;;;;;;;19.73;13.68;;;9.70;1.00;;;;;;5034672;28;20036;-64
2022/11/23 00:12:10;;;;;;;15.65;12.57;;;9.60;1.00;;;;;;5028950;28;20075;-65
2022/11/23 00:14:36;;;;;;;17.02;12.82;;;9.70;1.00;;;;;;5030101;28;20179;-64
2022/11/23 00:17:02;;;;;;;18.38;13.82;;;9.60;1.00;;;;;;5034923;28;20033;-64
2022/11/23 00:19:28;;;;;;;17.15;14.10;;;9.60;1.00;;;;;;5018446;28;20038;-64
2022/11/23 00:21:53;;;;;;;19.52;13.43;;;9.60;1.00;;;;;;5026750;28;20106;-63
2022/11/23 00:24:19;;;;;;;17.05;13.07;;;9.50;1.00;;;;;;5030165;28;20120;-63
2022/11/23 00:26:44;;;;;;;14.57;12.30;;;9.50;1.00;;;;;;5024351;28;20034;-63
2022/11/23 00:29:10;;;;;;;14.45;12.15;;;9.60;1.00;;;;;;5024994;28;20026;-63
2022/11/23 00:31:36;;;;;;;17.33;12.27;;;9.50;1.00;;;;;;5020740;28;20033;-63
2022/11/23 00:34:01;;;;;;;17.27;12.65;;;9.50;1.00;;;;;;5025286;28;20030;-63
2022/11/23 00:36:27;;;;;;;15.70;12.73;;;9.50;1.00;;;;;;5033643;28;20455;-63
2022/11/23 00:38:53;;;;;;;16.95;12.98;;;9.50;1.00;;;;;;5029280;28;20117;-64
2022/11/23 00:41:21;;;;;;;15.13;12.70;;;9.50;1.00;;;;;;5031142;28;20076;-63
2022/11/23 00:43:47;;;;;;;14.35;10.88;;;9.50;1.00;;;;;;5026785;28;20128;-63
2022/11/23 00:46:26;;;;;;;14.38;12.88;;;9.50;1.00;;;;;;5028113;28;20412;-63
2022/11/23 00:48:54;;;;;;;14.60;11.98;;;9.50;1.00;;;;;;5027076;28;20379;-64
2022/11/23 00:51:25;;;;;;;16.83;11.63;;;9.40;1.00;;;;;;5015434;28;20026;-63
2022/11/23 00:53:51;;;;;;;13.10;11.70;;;9.40;1.00;;;;;;5029850;28;20033;-63
2022/11/23 00:56:17;;;;;;;13.35;11.38;;;9.40;1.00;;;;;;5026818;28;20363;-63
2022/11/23 00:58:50;;;;;;;14.10;11.77;;;9.50;1.00;;;;;;5027250;28;20053;-63
2022/11/23 01:01:17;;;;;;;12.63;10.65;;;9.50;1.00;;;;;;5027351;28;20022;-64
2022/11/23 01:03:48;;;;;;;14.68;12.48;;;9.40;1.00;;;;;;5021796;28;20049;-64
2022/11/23 01:06:17;;;;;;;14.77;12.57;;;9.40;1.00;;;;;;5026259;28;20040;-64
2022/11/23 01:08:46;;;;;;;15.80;12.57;;;9.40;1.00;;;;;;5027964;28;20140;-64
2022/11/23 01:11:12;;;;;;;15.43;11.75;;;9.40;1.00;;;;;;5033428;28;20036;-63
2022/11/23 01:13:39;;;;;;;18.90;12.88;;;9.40;1.00;;;;;;5026648;28;20025;-64
2022/11/23 01:16:11;;;;;;;13.10;11.63;;;9.40;1.00;;;;;;5032232;28;20067;-63
2022/11/23 01:18:37;;;;;;;14.15;11.95;;;9.40;1.00;;;;;;5030308;28;20042;-64
2022/11/23 01:21:03;;;;;;;15.52;11.38;;;9.40;1.00;;;;;;5033784;28;20116;-64
2022/11/23 01:23:29;;;;;;;15.05;12.23;;;9.30;1.00;;;;;;5027357;28;20026;-64
2022/11/23 01:25:55;;;;;;;13.90;11.45;;;9.30;1.00;;;;;;5010589;28;20096;-64
2022/11/23 01:28:20;;;;;;;13.48;11.20;;;9.30;1.00;;;;;;5016672;28;20060;-63
2022/11/23 01:30:46;;;;;;;12.25;10.95;;;9.30;1.00;;;;;;5013472;28;20030;-63
2022/11/23 01:33:12;;;;;;;12.77;10.98;;;9.20;1.00;;;;;;5032810;28;20041;-63
2022/11/23 01:35:38;;;;;;;11.02;9.75;;;9.20;1.00;;;;;;5025342;28;20506;-63
2022/11/23 01:38:03;;;;;;;14.05;10.95;;;9.20;1.00;;;;;;5032438;28;20053;-63
2022/11/23 01:40:29;;;;;;;12.53;10.33;;;9.00;1.00;;;;;;5016467;28;20033;-63
2022/11/23 01:43:00;;;;;;;11.73;10.38;;;9.10;1.00;;;;;;5028256;28;20080;-63
2022/11/23 01:45:31;;;;;;;13.95;9.65;;;9.10;1.00;;;;;;5019993;28;20046;-63
2022/11/23 01:47:57;;;;;;;14.53;10.30;;;9.10;1.00;;;;;;5032648;28;20095;-63
2022/11/23 01:50:23;;;;;;;11.57;9.50;;;9.10;1.00;;;;;;5020383;28;20112;-63
2022/11/23 01:52:49;;;;;;;13.45;10.18;;;9.10;1.00;;;;;;5017333;28;20022;-63
2022/11/23 01:55:15;;;;;;;13.02;9.70;;;9.10;1.00;;;;;;5012537;28;20383;-63
2022/11/23 01:57:43;;;;;;;12.85;10.18;;;9.00;1.00;;;;;;5016151;28;20094;-63
2022/11/23 02:00:12;;;;;;;13.35;10.02;;;9.00;1.00;;;;;;5016336;28;20112;-64
2022/11/23 02:02:42;;;;;;;11.13;9.60;;;9.10;1.00;;;;;;5011479;28;20164;-63
2022/11/23 02:05:09;;;;;;;14.30;9.88;;;9.00;1.00;;;;;;5011274;28;20045;-63
2022/11/23 02:07:35;;;;;;;13.70;9.52;;;9.00;1.00;;;;;;5010682;28;20557;-64
2022/11/23 02:10:01;;;;;;;9.05;7.60;;;9.00;1.00;;;;;;5010132;28;20030;-64
2022/11/23 02:12:27;;;;;;;12.13;9.20;;;9.00;1.00;;;;;;5011906;28;20480;-64
2022/11/23 02:14:53;;;;;;;8.32;7.32;;;9.00;1.00;;;;;;5010682;28;20502;-64
2022/11/23 02:17:18;;;;;;;8.25;6.97;;;9.00;1.00;;;;;;5011572;28;20034;-63
2022/11/23 02:19:59;;;;;;;9.30;7.47;;;9.00;1.00;;;;;;5011405;28;20033;-64
2022/11/23 02:23:08;;;;;;;10.25;7.43;;;8.90;1.00;;;;;;5011243;28;20415;-64
2022/11/23 02:25:53;;;;;;;9.13;8.18;;;8.90;1.00;;;;;;4981310;28;20031;-63
2022/11/23 02:28:42;;;;;;;10.45;7.75;;;8.90;1.00;;;;;;5016980;28;20475;-63
2022/11/23 02:31:08;;;;;;;11.10;7.97;;;8.90;1.00;;;;;;5012017;28;20026;-63
2022/11/23 02:33:39;;;;;;;9.30;7.53;;;9.00;1.00;;;;;;5017350;28;20104;-64
2022/11/23 02:36:26;;;;;;;8.32;7.25;;;8.90;1.00;;;;;;5026252;28;20493;-64
2022/11/23 02:38:54;;;;;;;9.87;7.77;;;8.90;1.00;;;;;;5023574;28;20518;-64
2022/11/23 02:41:19;;;;;;;12.35;6.95;;;8.80;1.00;;;;;;5018760;28;20048;-64
2022/11/23 02:43:50;;;;;;;8.87;7.40;;;8.90;1.00;;;;;;5016832;28;20128;-63
2022/11/23 02:46:16;;;;;;;9.85;7.53;;;8.90;1.00;;;;;;5030249;28;20051;-63
2022/11/23 02:48:41;;;;;;;9.55;6.82;;;8.90;1.00;;;;;;5012530;28;20033;-64
2022/11/23 02:51:07;;;;;;;9.90;8.43;;;8.90;1.00;;;;;;5022585;28;20026;-64
2022/11/23 02:53:33;;;;;;;9.57;8.60;;;8.90;1.00;;;;;;5016430;28;20344;-64
2022/11/23 02:55:58;;;;;;;8.50;7.43;;;8.90;1.00;;;;;;5031660;28;20071;-64
2022/11/23 02:58:24;;;;;;;10.13;7.97;;;8.80;1.00;;;;;;5026244;28;20041;-63
2022/11/23 03:00:49;;;;;;;9.93;7.90;;;8.80;1.00;;;;;;5031416;28;20013;-63
2022/11/23 03:03:15;;;;;;;8.87;7.97;;;8.90;1.00;;;;;;5029659;28;20025;-64
2022/11/23 03:05:40;;;;;;;9.50;7.63;;;8.90;1.00;;;;;;5030286;28;20044;-63
2022/11/23 03:08:06;;;;;;;10.57;8.03;;;8.80;1.00;;;;;;5027109;28;20034;-63
2022/11/23 03:10:32;;;;;;;11.05;8.18;;;8.80;1.00;;;;;;5028013;28;20017;-64
2022/11/23 03:12:57;;;;;;;10.10;7.88;;;8.70;1.00;;;;;;5031414;28;20513;-64
2022/11/23 03:15:23;;;;;;;9.77;8.37;;;8.70;1.00;;;;;;5023161;28;20041;-64
2022/11/23 03:17:49;;;;;;;13.90;10.35;;;8.70;1.00;;;;;;5030978;28;20053;-64
2022/11/23 03:20:15;;;;;;;15.27;12.00;;;8.80;1.00;;;;;;5025105;28;20525;-64
2022/11/23 03:22:40;;;;;;;14.83;11.50;;;8.80;1.00;;;;;;5013438;28;20026;-63
2022/11/23 03:25:06;;;;;;;17.43;14.27;;;8.80;1.00;;;;;;5009853;28;20038;-64
2022/11/23 03:27:33;;;;;;;17.67;14.87;;;8.80;1.00;;;;;;5026956;28;20034;-64
2022/11/23 03:29:59;;;;;;;17.20;13.98;;;8.80;1.00;;;;;;5022669;28;20519;-63
2022/11/23 03:32:24;;;;;;;19.50;14.70;;;8.80;1.00;;;;;;5031006;28;20112;-63
2022/11/23 03:34:50;;;;;;;19.73;15.18;;;8.80;1.00;;;;;;5021362;28;20172;-63
2022/11/23 03:37:16;;;;;;;19.48;14.35;;;8.70;1.00;;;;;;5016897;28;20464;-63
2022/11/23 03:39:41;;;;;;;23.00;17.40;;;8.90;1.00;;;;;;5016230;28;20025;-63
2022/11/23 03:42:07;;;;;;;22.77;17.00;;;8.70;1.00;;;;;;5030710;28;20053;-63
2022/11/23 03:44:32;;;;;;;23.80;16.77;;;8.80;1.00;;;;;;5019985;28;20041;-63
2022/11/23 03:46:58;;;;;;;21.80;17.27;;;8.80;1.00;;;;;;5030952;28;20025;-63
2022/11/23 03:49:24;;;;;;;22.70;16.67;;;8.80;1.00;;;;;;5019375;28;20504;-63
2022/11/23 03:51:49;;;;;;;22.93;16.73;;;8.80;1.00;;;;;;5030235;28;20392;-63
2022/11/23 03:54:15;;;;;;;22.13;16.43;;;8.90;1.00;;;;;;5020656;28;20053;-63
2022/11/23 03:56:41;;;;;;;21.87;17.57;;;8.90;1.00;;;;;;5015101;28;20400;-63
2022/11/23 03:59:06;;;;;;;21.25;16.23;;;8.90;1.00;;;;;;5021374;28;20033;-63
2022/11/23 04:01:32;;;;;;;24.63;18.03;;;8.90;1.00;;;;;;5026065;28;20415;-63
2022/11/23 04:03:57;;;;;;;23.97;17.60;;;8.90;1.00;;;;;;5024581;28;20044;-63
2022/11/23 04:06:23;;;;;;;23.27;16.73;;;8.90;1.00;;;;;;5024710;28;20025;-63
2022/11/23 04:08:49;;;;;;;20.20;15.50;;;8.90;1.00;;;;;;5026751;28;20372;-63
2022/11/23 04:11:14;;;;;;;19.70;14.70;;;8.90;1.00;;;;;;5025802;28;20036;-63
2022/11/23 04:13:40;;;;;;;17.27;13.82;;;8.80;1.00;;;;;;5031549;28;20416;-63
2022/11/23 04:16:06;;;;;;;17.53;14.33;;;8.90;1.00;;;;;;5034484;28;20025;-63
2022/11/23 04:18:32;;;;;;;17.53;13.37;;;8.80;1.00;;;;;;5030434;28;20037;-63
2022/11/23 04:20:57;;;;;;;17.48;12.55;;;8.80;1.00;;;;;;5030858;28;20014;-63
2022/11/23 04:23:23;;;;;;;14.00;11.90;;;8.80;1.00;;;;;;5016207;28;20026;-63
2022/11/23 04:25:49;;;;;;;14.27;11.03;;;8.80;1.00;;;;;;5029833;28;20043;-63
2022/11/23 04:28:14;;;;;;;12.87;10.10;;;8.80;1.00;;;;;;5029692;28;20034;-63
2022/11/23 04:30:40;;;;;;;13.57;9.80;;;8.70;1.00;;;;;;5027134;28;20103;-63
2022/11/23 04:33:05;;;;;;;12.63;9.23;;;8.80;1.00;;;;;;5032903;28;20029;-63
2022/11/23 04:35:31;;;;;;;10.47;8.70;;;8.70;1.00;;;;;;5025676;28;20022;-63
2022/11/23 04:37:57;;;;;;;12.20;9.13;;;8.80;1.00;;;;;;5030444;28;20038;-63
2022/11/23 04:40:22;;;;;;;13.07;8.30;;;8.80;1.00;;;;;;5023691;28;20022;-63
2022/11/23 04:42:48;;;;;;;12.27;8.33;;;8.80;1.00;;;;;;5032540;28;20041;-63
2022/11/23 04:45:14;;;;;;;9.93;7.67;;;8.80;1.00;;;;;;5018037;28;20156;-63
2022/11/23 04:47:39;;;;;;;9.47;8.10;;;8.80;1.00;;;;;;5027231;28;20036;-63
2022/11/23 04:50:05;;;;;;;11.40;8.13;;;8.80;1.00;;;;;;5030728;28;20029;-63
2022/11/23 04:52:31;;;;;;;11.70;7.93;;;8.80;1.00;;;;;;5025073;28;20556;-63
2022/11/23 04:54:56;;;;;;;11.13;7.77;;;8.70;1.00;;;;;;5025844;28;20032;-63
2022/11/23 04:57:22;;;;;;;8.83;6.87;;;8.80;1.00;;;;;;5033712;28;20091;-63
2022/11/23 04:59:47;;;;;;;10.10;6.93;;;8.80;1.00;;;;;;5020043;28;20379;-64
2022/11/23 05:02:13;;;;;;;8.10;6.47;;;8.70;1.00;;;;;;5022777;28;20025;-64
2022/11/23 05:04:39;;;;;;;8.93;6.17;;;8.80;1.00;;;;;;5013948;28;20471;-63
2022/11/23 05:07:04;;;;;;;7.60;5.80;;;8.70;1.00;;;;;;5022363;28;20021;-63
2022/11/23 05:09:31;;;;;;;7.13;5.10;;;8.50;1.00;;;;;;5033261;28;20433;-63
2022/11/23 05:11:56;;;;;;;8.70;5.78;;;8.60;1.00;;;;;;5017656;28;20021;-63
2022/11/23 05:14:22;;;;;;;6.93;5.43;;;8.50;1.00;;;;;;5031119;28;20035;-63
2022/11/23 05:16:47;;;;;;;6.97;5.43;;;8.60;1.00;;;;;;5024565;28;20522;-63
2022/11/23 05:19:13;;;;;;;8.80;5.40;;;8.50;1.00;;;;;;5017474;28;20116;-63
2022/11/23 05:21:39;;;;;;;7.27;5.00;;;8.60;1.00;;;;;;5013482;28;20084;-63
2022/11/23 05:24:04;;;;;;;5.57;4.57;;;8.60;1.00;;;;;;5020164;28;20014;-63
2022/11/23 05:26:31;;;;;;;6.10;4.63;;;8.70;1.00;;;;;;5024563;28;20029;-63
2022/11/23 05:28:57;;;;;;;7.60;5.53;;;8.70;1.00;;;;;;5018830;28;20021;-63
2022/11/23 05:31:22;;;;;;;8.27;5.93;;;8.70;1.00;;;;;;5033167;28;20033;-63
2022/11/23 05:33:48;;;;;;;6.78;5.10;;;8.70;1.00;;;;;;5027630;28;20022;-63
2022/11/23 05:36:14;;;;;;;6.88;5.30;;;8.70;1.00;;;;;;5030887;28;20056;-63
2022/11/23 05:38:40;;;;;;;8.10;5.70;;;8.70;1.00;;;;;;5032913;28;20037;-64
2022/11/23 05:41:06;;;;;;;8.87;5.50;;;8.60;1.00;;;;;;5025666;28;20101;-63
2022/11/23 05:43:33;;;;;;;9.73;6.90;;;8.70;1.00;;;;;;5025082;28;20049;-63
2022/11/23 05:45:59;;;;;;;9.53;6.33;;;8.70;1.00;;;;;;5026069;28;20501;-63
2022/11/23 05:48:25;;;;;;;12.03;7.23;;;8.70;1.00;;;;;;5031022;28;20025;-63
2022/11/23 05:50:51;;;;;;;12.97;7.60;;;8.60;1.00;;;;;;5026921;28;20101;-63
2022/11/23 05:53:17;;;;;;;10.67;7.80;;;8.60;1.00;;;;;;5032308;28;20113;-63
2022/11/23 05:55:42;;;;;;;11.45;8.98;;;8.60;1.00;;;;;;5026292;28;20037;-63
2022/11/23 05:58:08;;;;;;;14.75;9.95;;;8.50;1.00;;;;;;5031205;28;20496;-63
2022/11/23 06:00:34;;;;;;;13.33;10.27;;;8.40;1.00;;;;;;5017702;28;20030;-63
2022/11/23 06:03:00;;;;;;;12.07;10.00;;;8.30;1.00;;;;;;5030617;28;20471;-63
2022/11/23 06:05:26;;;;;;;11.33;10.13;;;8.20;1.00;;;;;;5026684;28;20079;-63
2022/11/23 06:07:52;;;;;;;11.17;10.07;;;8.20;1.00;;;;;;5028421;28;20025;-62
2022/11/23 06:10:18;;;;;;;13.87;10.23;;;8.10;1.00;;;;;;5027686;28;20026;-63
2022/11/23 06:12:44;;;;;;;16.17;11.50;;;8.10;1.00;;;;;;5026670;28;20045;-62
2022/11/23 06:15:10;;;;;;;14.13;11.10;;;7.90;1.00;;;;;;5020206;28;20451;-62
2022/11/23 06:17:36;;;;;;;11.77;9.73;;;7.90;1.00;;;;;;5031991;28;20037;-62
2022/11/23 06:20:03;;;;;;;13.23;10.70;;;7.90;1.00;;;;;;5021915;28;20033;-63
2022/11/23 06:22:28;;;;;;;16.03;11.70;;;7.70;1.00;;;;;;5026321;28;20355;-62
2022/11/23 06:24:54;;;;;;;14.37;10.80;;;7.80;1.00;;;;;;5031041;28;20025;-62
2022/11/23 06:27:19;;;;;;;15.63;10.17;;;7.80;1.00;;;;;;5032257;28;20025;-62
2022/11/23 06:29:46;;;;;;;13.03;10.23;;;7.80;1.00;;;;;;5020920;28;20034;-62
2022/11/23 06:32:11;;;;;;;14.10;10.93;;;7.80;1.00;;;;;;5031968;28;20025;-62
2022/11/23 06:34:37;;;;;;;15.07;10.27;;;7.70;1.00;;;;;;5020504;28;20479;-62
2022/11/23 06:37:02;;;;;;;12.33;9.23;;;7.60;1.00;;;;;;5021880;28;20032;-62
2022/11/23 06:39:28;;;;;;;12.33;8.80;;;7.60;1.00;;;;;;5014587;28;20391;-62
2022/11/23 06:41:54;;;;;;;19.50;10.70;;;7.60;1.00;;;;;;5031923;28;20026;-62
2022/11/23 06:44:19;;;;;;;18.50;10.83;;;7.60;1.00;;;;;;5017865;28;20406;-62
2022/11/23 06:46:45;;;;;;;17.30;11.00;;;7.60;1.00;;;;;;5009952;28;20102;-62
2022/11/23 06:49:10;;;;;;;19.57;10.93;;;7.60;1.00;;;;;;5009016;28;20021;-63
2022/11/23 06:51:36;;;;;;;15.53;11.00;;;7.50;1.00;;;;;;5011195;28;20041;-63
2022/11/23 06:54:01;;;;;;;16.67;10.87;;;7.70;1.00;;;;;;5022071;28;20109;-63
2022/11/23 06:56:27;;;;;;;15.83;11.10;;;7.60;1.00;;;;;;5018827;28;20360;-62
2022/11/23 06:58:53;;;;;;;14.20;11.97;;;7.60;1.00;;;;;;5017496;28;20033;-62
2022/11/23 07:01:18;;;;;;;15.43;10.67;;;7.50;1.00;;;;;;5030145;28;20371;-62
2022/11/23 07:03:44;;;;;;;19.70;11.83;;;7.50;1.00;;;;;;5025615;28;20079;-61
2022/11/23 07:06:09;;;;;;;17.73;12.47;;;7.60;1.00;;;;;;5012326;28;20029;-63
2022/11/23 07:08:41;;;;;;;12.30;10.23;;;7.50;1.00;;;;;;5042002;28;20120;-63
2022/11/23 07:11:09;;;;;;;15.10;11.27;;;7.60;1.00;;;;;;5031568;28;20044;-62
2022/11/23 07:13:35;;;;;;;14.80;11.70;;;7.60;1.00;;;;;;5026244;28;20143;-63
2022/11/23 07:16:01;;;;;;;17.97;11.57;;;7.60;1.00;;;;;;5021088;28;20491;-62
2022/11/23 07:18:27;;;;;;;16.67;11.63;;;7.70;1.00;;;;;;5030071;28;20127;-62
2022/11/23 07:20:52;;;;;;;15.97;11.87;;;7.70;1.00;;;;;;5020357;28;20040;-63
2022/11/23 07:23:18;;;;;;;20.07;11.77;;;7.80;1.00;;;;;;5020419;28;20061;-63
2022/11/23 07:25:43;;;;;;;20.43;11.93;;;7.70;1.00;;;;;;5015751;28;20040;-62
2022/11/23 07:28:11;;;;;;;17.60;12.27;;;7.70;1.00;;;;;;5029682;28;20028;-63
2022/11/23 07:30:37;;;;;;;19.67;11.40;;;7.90;1.00;;;;;;5026237;28;20435;-62
2022/11/23 07:33:08;;;;;;;18.20;12.27;;;7.80;1.00;;;;;;5031358;28;20026;-61
2022/11/23 07:35:35;;;;;;;19.70;11.90;;;8.00;1.00;;;;;;5013681;28;20029;-61
2022/11/23 07:38:00;;;;;;;18.77;12.20;;;8.00;1.00;;;;;;5003431;28;20044;-60
2022/11/23 07:40:26;;;;;;;21.37;11.57;;;7.80;1.00;;;;;;5026370;28;20026;-61
2022/11/23 07:42:52;;;;;;;16.23;12.57;;;7.90;1.00;;;;;;5029388;28;20043;-60
2022/11/23 07:45:18;;;;;;;21.27;12.40;;;8.00;1.00;;;;;;5014921;28;20384;-61
2022/11/23 07:47:44;;;;;;;22.10;14.17;;;8.10;1.00;;;;;;5030756;28;20033;-60
2022/11/23 07:50:11;;;;;;;18.83;13.57;;;8.10;1.00;;;;;;5027628;28;20030;-61
2022/11/23 07:52:37;;;;;;;21.80;14.00;;;8.20;1.00;;;;;;5029333;28;20065;-61
2022/11/23 07:55:04;;;;;;;25.27;14.47;;;8.20;1.00;;;;;;5028060;28;20180;-61
2022/11/23 07:57:29;;;;;;;25.30;13.93;;;8.30;1.00;;;;;;5009877;28;20472;-54
2022/11/23 07:59:55;;;;;;;30.60;15.43;;;8.30;1.00;;;;;;5014067;28;20092;-55
2022/11/23 08:02:21;;;;;;;26.43;13.23;;;8.30;1.00;;;;;;5028050;28;20455;-55
2022/11/23 08:04:46;;;;;;;25.47;14.50;;;8.40;1.00;;;;;;5024561;28;20026;-54
2022/11/23 08:07:12;;;;;;;33.73;14.60;;;8.40;1.00;;;;;;5015173;28;20030;-50
2022/11/23 08:09:37;;;;;;;36.40;16.07;;;8.50;1.00;;;;;;5034579;28;20112;-52
2022/11/23 08:12:04;;;;;;;37.83;15.17;;;8.50;1.00;;;;;;5016974;28;20105;-54
2022/11/23 08:14:30;;;;;;;24.33;14.20;;;8.50;1.00;;;;;;5022104;28;20115;-55
2022/11/23 08:16:55;;;;;;;29.17;14.90;;;8.60;1.00;;;;;;5029835;28;20030;-52
2022/11/23 08:19:21;;;;;;;22.50;13.63;;;8.60;1.00;;;;;;5021161;28;20056;-51
2022/11/23 08:21:46;;;;;;;27.43;14.03;;;8.70;1.00;;;;;;5018618;28;20084;-53
2022/11/23 08:24:12;;;;;;;21.50;13.00;;;8.70;1.00;;;;;;5034212;28;20103;-55
2022/11/23 08:26:38;;;;;;;24.20;14.47;;;8.70;1.00;;;;;;5023462;28;20113;-55
2022/11/23 08:29:04;;;;;;;28.80;15.10;;;8.80;1.00;;;;;;5031602;28;20060;-53
2022/11/23 08:31:30;;;;;;;22.23;15.07;;;8.80;1.00;;;;;;5023149;28;20076;-53
2022/11/23 08:33:56;;;;;;;24.27;15.80;;;8.80;1.00;;;;;;5028077;28;20135;-51
2022/11/23 08:36:22;;;;;;;26.57;15.27;;;8.80;1.00;;;;;;5014894;28;20105;-53
2022/11/23 08:38:50;;;;;;;27.55;14.55;;;8.80;1.00;;;;;;5030178;28;20064;-51
2022/11/23 08:41:19;;;;;;;35.92;16.17;;;8.90;1.00;;;;;;5024799;28;20030;-49
2022/11/23 08:43:48;;;;;;;25.47;14.87;;;8.90;1.00;;;;;;5023915;28;20132;-51
2022/11/23 08:46:14;;;;;;;37.57;16.37;;;9.00;1.00;;;;;;5020250;28;20117;-52
2022/11/23 08:48:40;;;;;;;32.23;16.13;;;8.90;1.00;;;;;;5027911;28;20037;-51
2022/11/23 08:51:06;;;;;;;22.05;15.70;;;9.00;1.00;;;;;;5026924;28;20422;-53
2022/11/23 08:53:31;;;;;;;34.63;16.02;;;9.00;1.00;;;;;;5032750;28;20057;-53
2022/11/23 08:56:00;;;;;;;23.88;16.00;;;9.10;1.00;;;;;;5026000;28;20076;-50
2022/11/23 08:58:26;;;;;;;23.90;16.33;;;9.10;1.00;;;;;;5015674;28;20041;-54
2022/11/23 09:00:51;;;;;;;25.67;16.23;;;9.00;1.00;;;;;;5017256;28;20026;-55
2022/11/23 09:03:17;;;;;;;31.42;17.10;;;9.10;1.00;;;;;;5030314;28;20108;-54
2022/11/23 09:05:42;;;;;;;29.20;16.20;;;9.10;1.00;;;;;;5030577;28;20041;-52
2022/11/23 09:08:08;;;;;;;25.95;15.70;;;9.20;1.00;;;;;;5028275;28;20386;-51
2022/11/23 09:10:34;;;;;;;28.98;15.07;;;9.20;1.00;;;;;;5029797;28;20033;-51
2022/11/23 09:13:00;;;;;;;25.55;14.73;;;9.20;1.00;;;;;;5019540;28;20029;-52
2022/11/23 09:15:25;;;;;;;24.27;15.40;;;9.30;1.00;;;;;;5026554;28;20482;-51
2022/11/23 09:17:51;;;;;;;19.98;13.52;;;9.30;1.00;;;;;;5026387;28;20034;-61
2022/11/23 09:20:17;;;;;;;19.92;13.88;;;9.30;1.00;;;;;;5015182;28;20112;-60
2022/11/23 09:22:43;;;;;;;17.55;13.57;;;9.30;1.00;;;;;;5019813;28;20036;-62
2022/11/23 09:25:09;;;;;;;22.77;14.63;;;9.40;1.00;;;;;;5028366;28;20057;-61
2022/11/23 09:27:35;;;;;;;17.30;13.13;;;9.50;1.00;;;;;;5022947;28;20233;-62
2022/11/23 09:30:01;;;;;;;17.05;12.82;;;9.50;1.00;;;;;;5012781;28;20108;-61
2022/11/23 09:32:27;;;;;;;18.00;12.00;;;9.50;1.00;;;;;;5032987;28;20450;-61
2022/11/23 09:34:52;;;;;;;21.17;11.65;;;9.50;1.00;;;;;;5022794;28;20061;-61
2022/11/23 09:37:18;;;;;;;17.75;11.80;;;9.50;1.00;;;;;;5031058;28;20053;-61
2022/11/23 09:39:43;;;;;;;16.88;11.80;;;9.50;1.00;;;;;;5023775;28;20562;-61
2022/11/23 09:42:50;;;;;;;14.38;10.57;;;9.60;1.00;;;;;;5015046;28;20088;-61
2022/11/23 09:45:49;;;;;;;16.83;11.65;;;9.60;1.00;;;;;;5025301;28;20045;-60
2022/11/23 09:48:42;;;;;;;12.88;11.57;;;9.70;1.00;;;;;;5007523;28;20025;-61
2022/11/23 09:51:14;;;;;;;15.93;10.95;;;9.60;1.00;;;;;;5017615;28;20036;-61
2022/11/23 09:53:52;;;;;;;14.30;11.23;;;9.50;1.00;;;;;;5024065;28;20411;-61
2022/11/23 09:56:26;;;;;;;18.55;13.85;;;9.50;1.00;;;;;;5008977;28;20038;-61
2022/11/23 09:58:54;;;;;;;19.65;13.68;;;9.60;1.00;;;;;;5007595;28;20049;-61
2022/11/23 10:01:20;;;;;;;20.45;12.57;;;9.70;1.00;;;;;;5011575;28;20030;-60
2022/11/23 10:03:48;;;;;;;16.88;12.27;;;9.70;1.00;;;;;;5026151;28;20388;-60
2022/11/23 10:06:24;;;;;;;18.45;13.73;;;9.70;1.00;;;;;;5032088;28;20112;-61
2022/11/23 10:09:17;;;;;;;15.98;11.30;;;9.80;1.00;;;;;;5024381;28;20018;-61
2022/11/23 10:12:09;;;;;;;13.88;10.73;;;9.90;1.00;;;;;;5009032;28;20373;-61
2022/11/23 10:14:56;;;;;;;12.18;9.13;;;9.90;1.00;;;;;;5021515;28;20033;-61
2022/11/23 10:17:30;;;;;;;17.70;11.57;;;9.90;1.00;;;;;;5017765;28;20061;-61
2022/11/23 10:20:11;;;;;;;13.50;11.35;;;10.00;1.00;;;;;;5018368;28;20112;-61
2022/11/23 10:22:43;;;;;;;16.55;10.38;;;10.00;1.00;;;;;;5005742;28;20088;-60
2022/11/23 10:25:18;;;;;;;15.20;10.30;;;10.10;1.00;;;;;;5012251;28;20037;-61
2022/11/23 10:27:44;;;;;;;;;;;10.10;1.00;;;;;;5011188;28;20061;-61
2022/11/23 10:30:12;;;;;;;10.40;8.48;;;10.10;1.00;;;;;;5021502;28;19931;-61
2022/11/23 10:32:59;;;;;;;12.63;10.07;;;10.10;1.00;;;;;;5020312;28;20120;-61
2022/11/23 10:35:32;;;;;;;12.43;8.52;;;10.00;1.00;;;;;;5011207;28;20379;-61
2022/11/23 10:38:18;;;;;;;10.27;8.25;;;10.10;1.00;;;;;;5002219;28;20046;-61
2022/11/23 10:40:49;;;;;;;10.82;8.85;;;10.20;1.00;;;;;;5015504;28;20108;-61
2022/11/23 10:43:23;;;;;;;12.73;8.40;;;10.20;1.00;;;;;;5010164;28;20050;-61
2022/11/23 10:45:49;;;;;;;11.18;8.15;;;10.20;1.00;;;;;;5015708;28;20109;-61
2022/11/23 10:48:33;;;;;;;13.35;11.02;;;10.20;1.00;;;;;;5019183;28;20454;-61
2022/11/23 10:51:20;;;;;;;14.13;11.38;;;10.30;1.00;;;;;;5017098;28;20057;-61
2022/11/23 10:53:57;;;;;;;15.07;12.02;;;10.30;1.00;;;;;;5008485;28;20049;-61
2022/11/23 10:56:23;;;;;;;18.85;14.13;;;10.30;1.00;;;;;;5023677;28;20028;-61
2022/11/23 10:58:48;;;;;;;17.25;11.57;;;10.40;1.00;;;;;;5012831;28;20038;-61
2022/11/23 11:01:25;;;;;;;21.02;13.18;;;10.40;1.00;;;;;;5009123;28;20074;-60
2022/11/23 11:03:58;;;;;;;18.08;13.10;;;10.50;1.00;;;;;;5008326;28;20357;-61
2022/11/23 11:06:30;;;;;;;18.25;13.13;;;10.50;1.00;;;;;;5012549;28;20028;-61
2022/11/23 11:09:00;;;;;;;19.58;13.23;;;10.60;1.00;;;;;;5025612;28;20053;-61
2022/11/23 11:11:30;;;;;;;17.33;12.75;;;10.60;1.00;;;;;;5023767;28;20026;-61
2022/11/23 11:14:07;;;;;;;22.85;14.65;;;10.60;1.00;;;;;;5013925;28;20518;-61
2022/11/23 11:16:35;;;;;;;15.38;12.20;;;10.60;1.00;;;;;;5012258;28;20075;-61
2022/11/23 11:19:20;;;;;;;20.83;13.93;;;10.70;1.00;;;;;;5012369;28;20038;-61
2022/11/23 11:21:45;;;;;;;21.15;13.65;;;10.70;1.00;;;;;;5014194;28;20054;-61
2022/11/23 11:24:22;;;;;;;19.48;13.57;;;10.70;1.00;;;;;;5014179;28;20775;-61
2022/11/23 11:26:56;;;;;;;19.23;12.68;;;10.80;1.00;;;;;;5013617;28;20061;-61
2022/11/23 11:29:38;;;;;;;17.67;12.75;;;10.80;1.00;;;;;;5014990;28;20029;-61
2022/11/23 11:32:16;;;;;;;16.15;12.25;;;10.80;1.00;;;;;;5012626;28;20471;-61
2022/11/23 11:35:19;;;;;;;16.65;11.93;;;10.80;1.00;;;;;;5022798;28;20038;-61
2022/11/23 11:37:48;;;;;;;15.45;11.75;;;10.90;1.00;;;;;;5025534;28;20479;-61
2022/11/23 11:40:23;;;;;;;17.33;12.52;;;10.90;1.00;;;;;;5024128;28;20084;-61
2022/11/23 11:42:57;;;;;;;19.05;13.73;;;10.90;1.00;;;;;;5017752;28;20440;-61
2022/11/23 11:45:33;;;;;;;20.42;14.23;;;11.00;1.00;;;;;;5015412;28;20033;-60
2022/11/23 11:48:13;;;;;;;19.83;13.32;;;11.00;1.00;;;;;;5019725;28;20026;-59
2022/11/23 11:50:52;;;;;;;12.55;10.05;;;11.00;1.00;;;;;;5019945;28;20024;-60
2022/11/23 11:53:29;;;;;;;14.15;10.73;;;11.00;1.00;;;;;;5014596;28;20055;-61
2022/11/23 11:55:58;;;;;;;18.65;12.20;;;11.10;1.00;;;;;;5022353;28;20074;-61
2022/11/23 11:58:25;;;;;;;15.02;11.68;;;11.10;1.00;;;;;;5011820;28;21460;-61
2022/11/23 12:01:03;;;;;;;13.85;10.93;;;11.10;1.00;;;;;;5011724;28;20060;-61
2022/11/23 12:03:51;;;;;;;13.77;9.93;;;11.10;1.00;;;;;;5019506;28;20083;-61
2022/11/23 12:06:32;;;;;;;13.57;9.98;;;11.20;1.00;;;;;;5016968;28;20057;-61
2022/11/23 12:09:11;;;;;;;11.10;8.25;;;11.20;1.00;;;;;;5031090;28;20483;-60
2022/11/23 12:11:37;;;;;;;13.38;9.68;;;11.20;1.00;;;;;;5017387;28;20177;-60
2022/11/23 12:14:04;;;;;;;9.32;7.88;;;11.30;1.00;;;;;;5024388;28;20037;-60
2022/11/23 12:16:30;;;;;;;8.85;7.13;;;11.30;1.00;;;;;;5015634;28;20069;-61
2022/11/23 12:19:14;;;;;;;10.48;6.38;;;11.30;1.00;;;;;;5034589;28;20131;-60
2022/11/23 12:22:07;;;;;;;9.18;6.30;;;11.20;1.00;;;;;;5020908;28;20045;-61
2022/11/23 12:24:43;;;;;;;9.88;6.40;;;11.30;1.00;;;;;;5007978;28;20064;-61
2022/11/23 12:27:53;;;;;;;9.50;7.28;;;11.30;1.00;;;;;;5012984;28;20076;-61
2022/11/23 12:30:24;;;;;;;8.88;7.25;;;11.30;1.00;;;;;;4988489;28;20124;-61
2022/11/23 12:33:15;;;;;;;9.77;8.15;;;11.30;1.00;;;;;;5018840;28;20041;-61
2022/11/23 12:36:05;;;;;;;9.77;7.13;;;11.30;1.00;;;;;;5018331;28;20026;-61
2022/11/23 12:38:53;;;;;;;10.57;7.90;;;11.30;1.00;;;;;;5033805;28;20041;-61
2022/11/23 12:41:28;;;;;;;9.35;7.28;;;11.40;1.00;;;;;;5022038;28;20506;-61
2022/11/23 12:44:06;;;;;;;13.10;8.32;;;11.40;1.00;;;;;;5027506;28;20140;-61
2022/11/23 12:46:43;;;;;;;7.10;5.80;;;11.40;1.00;;;;;;5031227;28;20037;-61
2022/11/23 12:49:31;;;;;;;8.15;6.20;;;11.40;1.00;;;;;;5033996;28;20053;-61
2022/11/23 12:52:25;;;;;;;8.45;6.07;;;11.40;1.00;;;;;;5030249;28;20068;-61
2022/11/23 12:55:24;;;;;;;9.65;7.03;;;11.50;1.00;;;;;;5009801;28;20487;-61
2022/11/23 12:58:11;;;;;;;8.43;6.15;;;11.50;1.00;;;;;;5012245;28;20049;-61
2022/11/23 13:00:42;;;;;;;7.25;5.50;;;11.50;1.00;;;;;;5013805;28;20034;-61